sensor_id;sensor_type;location;lat;lon;timestamp;pressure;altitude;pressure_sealevel;temperature;humidity
63808;BME280;49961;43.970;22.868;2023-03-23T00:00:15;101604.56;;;10.97;100.00
63808;BME280;49961;43.970;22.868;2023-03-23T00:01:17;101615.31;;;10.91;100.00
63808;BME280;49961;43.970;22.868;2023-03-23T00:02:28;101600.69;;;10.87;100.00
63808;BME280;49961;43.970;22.868;2023-03-23T00:03:29;101602.28;;;10.85;100.00
63808;BME280;49961;43.970;22.868;2023-03-23T00:04:32;101596.88;;;10.74;100.00
63808;BME280;49961;43.970;22.868;2023-03-23T00:05:32;101617.38;;;10.84;100.00
63808;BME280;49961;43.970;22.868;2023-03-23T00:06:32;101607.03;;;10.88;100.00
63808;BME280;49961;43.970;22.868;2023-03-23T00:07:35;101517.59;;;10.36;100.00
63808;BME280;49961;43.970;22.868;2023-03-23T00:08:38;101604.22;;;10.91;100.00
63808;BME280;49961;43.970;22.868;2023-03-23T00:09:45;101610.94;;;10.94;100.00
63808;BME280;49961;43.970;22.868;2023-03-23T00:10:50;101588.03;;;10.86;100.00
63808;BME280;49961;43.970;22.868;2023-03-23T00:11:56;101543.56;;;10.56;100.00
63808;BME280;49961;43.970;22.868;2023-03-23T00:13:05;101601.44;;;10.91;100.00
63808;BME280;49961;43.970;22.868;2023-03-23T00:14:06;101595.50;;;10.93;100.00
63808;BME280;49961;43.970;22.868;2023-03-23T00:15:12;101580.16;;;10.81;100.00
63808;BME280;49961;43.970;22.868;2023-03-23T00:16:17;101599.47;;;10.92;100.00
63808;BME280;49961;43.970;22.868;2023-03-23T00:17:18;101598.75;;;10.84;100.00
63808;BME280;49961;43.970;22.868;2023-03-23T00:18:19;101592.41;;;10.84;100.00
63808;BME280;49961;43.970;22.868;2023-03-23T00:19:23;101584.03;;;10.87;100.00
63808;BME280;49961;43.970;22.868;2023-03-23T00:20:24;101583.28;;;10.87;100.00
63808;BME280;49961;43.970;22.868;2023-03-23T00:21:32;101591.19;;;10.85;100.00
63808;BME280;49961;43.970;22.868;2023-03-23T00:22:34;101568.34;;;10.74;100.00
63808;BME280;49961;43.970;22.868;2023-03-23T00:23:38;101593.16;;;10.88;100.00
63808;BME280;49961;43.970;22.868;2023-03-23T00:24:39;101586.81;;;10.87;100.00
63808;BME280;49961;43.970;22.868;2023-03-23T00:25:40;101596.75;;;10.88;100.00
63808;BME280;49961;43.970;22.868;2023-03-23T00:26:40;101577.06;;;10.76;100.00
63808;BME280;49961;43.970;22.868;2023-03-23T00:27:41;101523.13;;;10.40;100.00
63808;BME280;49961;43.970;22.868;2023-03-23T00:28:41;101603.91;;;10.82;100.00
63808;BME280;49961;43.970;22.868;2023-03-23T00:29:42;101590.47;;;10.81;100.00
63808;BME280;49961;43.970;22.868;2023-03-23T00:30:45;101592.81;;;10.82;100.00
63808;BME280;49961;43.970;22.868;2023-03-23T00:31:45;101591.66;;;10.80;100.00
63808;BME280;49961;43.970;22.868;2023-03-23T00:32:49;101593.69;;;10.76;100.00
63808;BME280;49961;43.970;22.868;2023-03-23T00:33:50;101577.97;;;10.62;100.00
63808;BME280;49961;43.970;22.868;2023-03-23T00:34:51;101583.88;;;10.64;100.00
63808;BME280;49961;43.970;22.868;2023-03-23T00:35:52;101579.94;;;10.62;100.00
63808;BME280;49961;43.970;22.868;2023-03-23T00:36:54;101575.22;;;10.59;100.00
63808;BME280;49961;43.970;22.868;2023-03-23T00:37:56;101580.78;;;10.55;100.00
63808;BME280;49961;43.970;22.868;2023-03-23T00:38:58;101580.44;;;10.53;100.00
63808;BME280;49961;43.970;22.868;2023-03-23T00:39:59;101580.03;;;10.55;100.00
63808;BME280;49961;43.970;22.868;2023-03-23T00:41:01;101587.94;;;10.53;100.00
63808;BME280;49961;43.970;22.868;2023-03-23T00:42:03;101579.28;;;10.47;100.00
63808;BME280;49961;43.970;22.868;2023-03-23T00:43:04;101589.63;;;10.43;100.00
63808;BME280;49961;43.970;22.868;2023-03-23T00:44:04;101453.75;;;9.55;100.00
63808;BME280;49961;43.970;22.868;2023-03-23T00:45:05;101584.53;;;10.31;100.00
63808;BME280;49961;43.970;22.868;2023-03-23T00:46:10;101564.88;;;10.15;100.00
63808;BME280;49961;43.970;22.868;2023-03-23T00:47:11;101581.47;;;10.22;100.00
63808;BME280;49961;43.970;22.868;2023-03-23T00:48:12;101587.81;;;10.19;100.00
63808;BME280;49961;43.970;22.868;2023-03-23T00:49:14;101585.44;;;10.18;100.00
63808;BME280;49961;43.970;22.868;2023-03-23T00:50:14;101581.94;;;10.14;100.00
63808;BME280;49961;43.970;22.868;2023-03-23T00:51:15;101585.13;;;10.09;100.00
63808;BME280;49961;43.970;22.868;2023-03-23T00:52:15;101569.31;;;9.95;100.00
63808;BME280;49961;43.970;22.868;2023-03-23T00:53:16;101588.31;;;10.04;100.00
63808;BME280;49961;43.970;22.868;2023-03-23T00:54:17;101593.84;;;10.04;100.00
63808;BME280;49961;43.970;22.868;2023-03-23T00:55:17;101583.16;;;10.02;100.00
63808;BME280;49961;43.970;22.868;2023-03-23T00:56:18;101585.53;;;9.97;100.00
63808;BME280;49961;43.970;22.868;2023-03-23T00:57:18;101489.44;;;9.32;100.00
63808;BME280;49961;43.970;22.868;2023-03-23T00:58:19;101584.78;;;9.89;100.00
63808;BME280;49961;43.970;22.868;2023-03-23T00:59:20;101591.16;;;9.86;100.00
63808;BME280;49961;43.970;22.868;2023-03-23T01:00:21;101565.94;;;9.70;100.00
63808;BME280;49961;43.970;22.868;2023-03-23T01:01:22;101590.00;;;9.80;100.00
63808;BME280;49961;43.970;22.868;2023-03-23T01:02:23;101586.44;;;9.80;100.00
63808;BME280;49961;43.970;22.868;2023-03-23T01:03:25;101587.25;;;9.77;100.00
63808;BME280;49961;43.970;22.868;2023-03-23T01:04:26;101590.00;;;9.77;100.00
63808;BME280;49961;43.970;22.868;2023-03-23T01:05:28;101581.38;;;9.68;100.00
63808;BME280;49961;43.970;22.868;2023-03-23T01:06:34;101584.91;;;9.75;100.00
63808;BME280;49961;43.970;22.868;2023-03-23T01:07:40;101586.09;;;9.71;100.00
63808;BME280;49961;43.970;22.868;2023-03-23T01:08:42;101571.97;;;9.48;100.00
63808;BME280;49961;43.970;22.868;2023-03-23T01:09:45;101589.66;;;9.64;100.00
63808;BME280;49961;43.970;22.868;2023-03-23T01:10:46;101584.56;;;9.63;100.00
63808;BME280;49961;43.970;22.868;2023-03-23T01:11:48;101580.63;;;9.53;100.00
63808;BME280;49961;43.970;22.868;2023-03-23T01:12:49;101589.31;;;9.59;100.00
63808;BME280;49961;43.970;22.868;2023-03-23T01:13:51;101591.31;;;9.55;100.00
63808;BME280;49961;43.970;22.868;2023-03-23T01:14:51;101588.16;;;9.49;100.00
63808;BME280;49961;43.970;22.868;2023-03-23T01:15:52;101582.66;;;9.42;100.00
63808;BME280;49961;43.970;22.868;2023-03-23T01:16:52;101583.44;;;9.46;100.00
63808;BME280;49961;43.970;22.868;2023-03-23T01:17:53;101583.81;;;9.48;100.00
63808;BME280;49961;43.970;22.868;2023-03-23T01:18:53;101587.00;;;9.50;100.00
63808;BME280;49961;43.970;22.868;2023-03-23T01:19:54;101585.00;;;9.51;100.00
63808;BME280;49961;43.970;22.868;2023-03-23T01:20:54;101588.94;;;9.53;100.00
63808;BME280;49961;43.970;22.868;2023-03-23T01:21:55;101519.59;;;9.09;100.00
63808;BME280;49961;43.970;22.868;2023-03-23T01:22:55;101582.63;;;9.56;100.00
63808;BME280;49961;43.970;22.868;2023-03-23T01:24:00;101591.69;;;9.57;100.00
63808;BME280;49961;43.970;22.868;2023-03-23T01:25:01;101586.94;;;9.57;100.00
63808;BME280;49961;43.970;22.868;2023-03-23T01:26:15;101584.56;;;9.56;100.00
63808;BME280;49961;43.970;22.868;2023-03-23T01:27:16;101592.47;;;9.57;100.00
63808;BME280;49961;43.970;22.868;2023-03-23T01:28:16;101590.91;;;9.60;100.00
63808;BME280;49961;43.970;22.868;2023-03-23T01:29:17;101568.44;;;9.44;100.00
63808;BME280;49961;43.970;22.868;2023-03-23T01:30:17;101506.56;;;9.03;100.00
63808;BME280;49961;43.970;22.868;2023-03-23T01:31:20;101585.41;;;9.46;100.00
63808;BME280;49961;43.970;22.868;2023-03-23T01:32:21;101558.63;;;9.29;100.00
63808;BME280;49961;43.970;22.868;2023-03-23T01:33:21;101583.47;;;9.36;100.00
63808;BME280;49961;43.970;22.868;2023-03-23T01:34:22;101588.25;;;9.28;100.00
63808;BME280;49961;43.970;22.868;2023-03-23T01:35:22;101589.88;;;9.19;100.00
63808;BME280;49961;43.970;22.868;2023-03-23T01:36:25;101592.22;;;9.13;100.00
63808;BME280;49961;43.970;22.868;2023-03-23T01:37:29;101583.97;;;9.06;100.00
63808;BME280;49961;43.970;22.868;2023-03-23T01:38:30;101587.53;;;9.07;100.00
63808;BME280;49961;43.970;22.868;2023-03-23T01:39:31;101597.00;;;9.06;100.00
63808;BME280;49961;43.970;22.868;2023-03-23T01:40:31;101594.66;;;9.04;100.00
63808;BME280;49961;43.970;22.868;2023-03-23T01:41:33;101595.44;;;9.01;100.00
63808;BME280;49961;43.970;22.868;2023-03-23T01:42:36;101597.00;;;9.02;100.00
63808;BME280;49961;43.970;22.868;2023-03-23T01:43:54;101591.09;;;9.00;100.00
63808;BME280;49961;43.970;22.868;2023-03-23T01:45:57;101595.81;;;9.00;100.00
63808;BME280;49961;43.970;22.868;2023-03-23T01:46:59;101447.13;;;8.11;100.00
63808;BME280;49961;43.970;22.868;2023-03-23T01:48:24;101593.03;;;9.03;100.00
63808;BME280;49961;43.970;22.868;2023-03-23T01:49:31;101593.44;;;9.05;100.00
63808;BME280;49961;43.970;22.868;2023-03-23T01:50:37;101594.22;;;9.06;100.00
63808;BME280;49961;43.970;22.868;2023-03-23T01:51:44;101593.84;;;9.00;100.00
63808;BME280;49961;43.970;22.868;2023-03-23T01:52:47;101588.31;;;9.00;100.00
63808;BME280;49961;43.970;22.868;2023-03-23T01:54:00;101515.38;;;8.49;100.00
63808;BME280;49961;43.970;22.868;2023-03-23T01:55:03;101559.94;;;8.61;100.00
63808;BME280;49961;43.970;22.868;2023-03-23T01:56:04;101596.66;;;8.93;100.00
63808;BME280;49961;43.970;22.868;2023-03-23T01:57:12;101604.13;;;9.00;100.00
63808;BME280;49961;43.970;22.868;2023-03-23T01:58:14;101595.41;;;9.05;100.00
63808;BME280;49961;43.970;22.868;2023-03-23T01:59:16;101600.53;;;9.10;100.00
63808;BME280;49961;43.970;22.868;2023-03-23T02:00:17;101599.78;;;9.09;100.00
63808;BME280;49961;43.970;22.868;2023-03-23T02:01:18;101593.03;;;9.14;100.00
63808;BME280;49961;43.970;22.868;2023-03-23T02:02:24;101601.31;;;9.17;100.00
63808;BME280;49961;43.970;22.868;2023-03-23T02:03:24;101598.53;;;9.21;100.00
63808;BME280;49961;43.970;22.868;2023-03-23T02:04:25;101595.78;;;9.24;100.00
63808;BME280;49961;43.970;22.868;2023-03-23T02:05:36;101473.56;;;8.47;100.00
63808;BME280;49961;43.970;22.868;2023-03-23T02:06:37;101592.19;;;9.31;100.00
63808;BME280;49961;43.970;22.868;2023-03-23T02:07:39;101597.31;;;9.32;100.00
63808;BME280;49961;43.970;22.868;2023-03-23T02:08:41;101584.28;;;9.33;100.00
63808;BME280;49961;43.970;22.868;2023-03-23T02:09:44;101585.47;;;9.35;100.00
63808;BME280;49961;43.970;22.868;2023-03-23T02:10:44;101597.31;;;9.36;100.00
63808;BME280;49961;43.970;22.868;2023-03-23T02:11:46;101590.97;;;9.39;100.00
63808;BME280;49961;43.970;22.868;2023-03-23T02:12:47;101585.84;;;9.37;100.00
63808;BME280;49961;43.970;22.868;2023-03-23T02:13:48;101593.38;;;9.37;100.00
63808;BME280;49961;43.970;22.868;2023-03-23T02:14:49;101584.66;;;9.38;100.00
63808;BME280;49961;43.970;22.868;2023-03-23T02:16:43;101581.91;;;9.35;100.00
63808;BME280;49961;43.970;22.868;2023-03-23T02:34:55;101603.19;;;9.55;100.00
63808;BME280;49961;43.970;22.868;2023-03-23T02:35:57;101606.69;;;9.59;100.00
63808;BME280;49961;43.970;22.868;2023-03-23T02:37:06;101602.75;;;9.64;100.00
63808;BME280;49961;43.970;22.868;2023-03-23T02:40:16;101600.38;;;9.62;100.00
63808;BME280;49961;43.970;22.868;2023-03-23T02:41:20;101605.88;;;9.66;100.00
63808;BME280;49961;43.970;22.868;2023-03-23T02:42:26;101477.44;;;8.81;100.00
63808;BME280;49961;43.970;22.868;2023-03-23T02:43:34;101603.94;;;9.63;100.00
63808;BME280;49961;43.970;22.868;2023-03-23T02:44:40;101613.41;;;9.65;100.00
63808;BME280;49961;43.970;22.868;2023-03-23T02:45:43;101614.59;;;9.68;100.00
63808;BME280;49961;43.970;22.868;2023-03-23T02:46:44;101613.78;;;9.67;100.00
63808;BME280;49961;43.970;22.868;2023-03-23T02:47:48;101609.81;;;9.68;100.00
63808;BME280;49961;43.970;22.868;2023-03-23T02:48:50;101602.34;;;9.65;100.00
63808;BME280;49961;43.970;22.868;2023-03-23T02:49:53;101615.75;;;9.74;100.00
63808;BME280;49961;43.970;22.868;2023-03-23T02:50:55;101618.50;;;9.74;100.00
63808;BME280;49961;43.970;22.868;2023-03-23T02:51:58;101619.69;;;9.76;100.00
63808;BME280;49961;43.970;22.868;2023-03-23T02:53:00;101618.50;;;9.77;100.00
63808;BME280;49961;43.970;22.868;2023-03-23T02:54:02;101617.31;;;9.75;100.00
63808;BME280;49961;43.970;22.868;2023-03-23T02:55:04;101633.50;;;9.80;100.00
63808;BME280;49961;43.970;22.868;2023-03-23T02:56:07;101624.81;;;9.78;100.00
63808;BME280;49961;43.970;22.868;2023-03-23T02:57:09;101629.19;;;9.75;100.00
63808;BME280;49961;43.970;22.868;2023-03-23T02:58:10;101618.13;;;9.75;100.00
63808;BME280;49961;43.970;22.868;2023-03-23T02:59:11;101624.03;;;9.74;100.00
63808;BME280;49961;43.970;22.868;2023-03-23T03:00:14;101632.34;;;9.77;100.00
63808;BME280;49961;43.970;22.868;2023-03-23T03:02:40;101619.66;;;9.80;100.00
63808;BME280;49961;43.970;22.868;2023-03-23T03:03:42;101624.41;;;9.79;100.00
63808;BME280;49961;43.970;22.868;2023-03-23T03:04:52;101628.38;;;9.78;100.00
63808;BME280;49961;43.970;22.868;2023-03-23T03:07:46;101630.72;;;9.80;100.00
63808;BME280;49961;43.970;22.868;2023-03-23T03:08:58;101513.66;;;9.07;100.00
63808;BME280;49961;43.970;22.868;2023-03-23T03:11:19;101507.34;;;9.00;100.00
63808;BME280;49961;43.970;22.868;2023-03-23T03:12:55;101637.44;;;9.82;100.00
63808;BME280;49961;43.970;22.868;2023-03-23T03:15:22;101638.63;;;9.85;100.00
63808;BME280;49961;43.970;22.868;2023-03-23T03:17:53;101648.53;;;9.82;100.00
63808;BME280;49961;43.970;22.868;2023-03-23T03:19:03;101646.53;;;9.83;100.00
63808;BME280;49961;43.970;22.868;2023-03-23T03:20:06;101649.69;;;9.88;100.00
63808;BME280;49961;43.970;22.868;2023-03-23T03:21:12;101490.00;;;8.96;100.00
63808;BME280;49961;43.970;22.868;2023-03-23T03:22:14;101642.16;;;9.92;100.00
63808;BME280;49961;43.970;22.868;2023-03-23T03:23:16;101642.91;;;9.93;100.00
63808;BME280;49961;43.970;22.868;2023-03-23T03:24:18;101646.47;;;9.97;100.00
63808;BME280;49961;43.970;22.868;2023-03-23T03:25:20;101588.50;;;9.65;100.00
63808;BME280;49961;43.970;22.868;2023-03-23T03:26:24;101638.97;;;9.97;100.00
63808;BME280;49961;43.970;22.868;2023-03-23T03:27:26;101652.38;;;10.06;100.00
63808;BME280;49961;43.970;22.868;2023-03-23T03:28:28;101516.38;;;9.21;100.00
63808;BME280;49961;43.970;22.868;2023-03-23T03:29:32;101646.44;;;10.11;100.00
63808;BME280;49961;43.970;22.868;2023-03-23T03:30:35;101593.19;;;9.75;100.00
63808;BME280;49961;43.970;22.868;2023-03-23T03:31:39;101646.03;;;10.12;100.00
63808;BME280;49961;43.970;22.868;2023-03-23T03:32:48;101647.59;;;10.13;100.00
63808;BME280;49961;43.970;22.868;2023-03-23T03:33:51;101652.75;;;10.15;100.00
63808;BME280;49961;43.970;22.868;2023-03-23T03:34:51;101655.13;;;10.16;100.00
63808;BME280;49961;43.970;22.868;2023-03-23T03:35:56;101656.28;;;10.15;100.00
63808;BME280;49961;43.970;22.868;2023-03-23T03:36:58;101653.94;;;10.14;100.00
63808;BME280;49961;43.970;22.868;2023-03-23T03:38:05;101654.72;;;10.14;100.00
63808;BME280;49961;43.970;22.868;2023-03-23T03:39:08;101657.44;;;10.18;100.00
63808;BME280;49961;43.970;22.868;2023-03-23T03:40:16;101545.13;;;9.41;100.00
63808;BME280;49961;43.970;22.868;2023-03-23T03:41:18;101660.22;;;10.18;100.00
63808;BME280;49961;43.970;22.868;2023-03-23T03:42:18;101652.78;;;10.04;100.00
63808;BME280;49961;43.970;22.868;2023-03-23T03:43:19;101658.25;;;10.18;100.00
63808;BME280;49961;43.970;22.868;2023-03-23T03:44:20;101536.78;;;9.48;100.00
63808;BME280;49961;43.970;22.868;2023-03-23T03:45:21;101647.16;;;10.22;100.00
63808;BME280;49961;43.970;22.868;2023-03-23T03:46:22;101654.25;;;10.23;100.00
63808;BME280;49961;43.970;22.868;2023-03-23T03:47:26;101654.66;;;10.25;100.00
63808;BME280;49961;43.970;22.868;2023-03-23T03:48:27;101586.44;;;9.80;100.00
63808;BME280;49961;43.970;22.868;2023-03-23T03:49:27;101657.03;;;10.23;100.00
63808;BME280;49961;43.970;22.868;2023-03-23T03:50:28;101656.63;;;10.24;100.00
63808;BME280;49961;43.970;22.868;2023-03-23T03:51:29;101659.78;;;10.26;100.00
63808;BME280;49961;43.970;22.868;2023-03-23T03:52:30;101660.97;;;10.25;100.00
63808;BME280;49961;43.970;22.868;2023-03-23T03:53:31;101661.38;;;10.27;100.00
63808;BME280;49961;43.970;22.868;2023-03-23T03:54:32;101666.91;;;10.27;100.00
63808;BME280;49961;43.970;22.868;2023-03-23T03:55:33;101662.94;;;10.28;100.00
63808;BME280;49961;43.970;22.868;2023-03-23T03:56:38;101659.38;;;10.28;100.00
63808;BME280;49961;43.970;22.868;2023-03-23T03:57:40;101656.59;;;10.28;100.00
63808;BME280;49961;43.970;22.868;2023-03-23T03:58:42;101548.22;;;9.54;100.00
63808;BME280;49961;43.970;22.868;2023-03-23T03:59:43;101661.38;;;10.27;100.00
63808;BME280;49961;43.970;22.868;2023-03-23T04:00:44;101647.91;;;10.26;100.00
63808;BME280;49961;43.970;22.868;2023-03-23T04:01:48;101656.19;;;10.33;100.00
63808;BME280;49961;43.970;22.868;2023-03-23T04:02:54;101607.66;;;10.00;100.00
63808;BME280;49961;43.970;22.868;2023-03-23T04:03:55;101656.97;;;10.33;100.00
63808;BME280;49961;43.970;22.868;2023-03-23T04:04:55;101654.22;;;10.33;100.00
63808;BME280;49961;43.970;22.868;2023-03-23T04:05:55;101653.81;;;10.35;100.00
63808;BME280;49961;43.970;22.868;2023-03-23T04:06:56;101638.44;;;10.23;100.00
63808;BME280;49961;43.970;22.868;2023-03-23T04:07:57;101647.88;;;10.29;100.00
63808;BME280;49961;43.970;22.868;2023-03-23T04:09:02;101653.00;;;10.34;100.00
63808;BME280;49961;43.970;22.868;2023-03-23T04:10:06;101663.28;;;10.34;100.00
63808;BME280;49961;43.970;22.868;2023-03-23T04:11:09;101542.28;;;9.52;100.00
63808;BME280;49961;43.970;22.868;2023-03-23T04:12:09;101655.81;;;10.31;100.00
63808;BME280;49961;43.970;22.868;2023-03-23T04:13:10;101653.81;;;10.31;100.00
63808;BME280;49961;43.970;22.868;2023-03-23T04:14:10;101661.72;;;10.33;100.00
63808;BME280;49961;43.970;22.868;2023-03-23T04:15:11;101613.63;;;10.06;100.00
63808;BME280;49961;43.970;22.868;2023-03-23T04:16:11;101664.88;;;10.35;100.00
63808;BME280;49961;43.970;22.868;2023-03-23T04:17:12;101656.56;;;10.35;100.00
63808;BME280;49961;43.970;22.868;2023-03-23T04:18:16;101590.75;;;9.91;100.00
63808;BME280;49961;43.970;22.868;2023-03-23T04:19:18;101663.69;;;10.36;100.00
63808;BME280;49961;43.970;22.868;2023-03-23T04:20:18;101662.50;;;10.33;100.00
63808;BME280;49961;43.970;22.868;2023-03-23T04:21:19;101649.97;;;10.15;100.00
63808;BME280;49961;43.970;22.868;2023-03-23T04:22:20;101668.81;;;10.34;100.00
63808;BME280;49961;43.970;22.868;2023-03-23T04:23:20;101672.41;;;10.34;100.00
63808;BME280;49961;43.970;22.868;2023-03-23T04:24:21;101668.06;;;10.33;100.00
63808;BME280;49961;43.970;22.868;2023-03-23T04:25:23;101655.06;;;10.23;100.00
63808;BME280;49961;43.970;22.868;2023-03-23T04:26:26;101665.28;;;10.33;100.00
63808;BME280;49961;43.970;22.868;2023-03-23T04:27:28;101663.28;;;10.34;100.00
63808;BME280;49961;43.970;22.868;2023-03-23T04:28:29;101601.00;;;9.91;100.00
63808;BME280;49961;43.970;22.868;2023-03-23T04:29:33;101683.06;;;10.39;100.00
63808;BME280;49961;43.970;22.868;2023-03-23T04:30:34;101664.06;;;10.38;100.00
63808;BME280;49961;43.970;22.868;2023-03-23T04:31:35;101671.25;;;10.28;100.00
63808;BME280;49961;43.970;22.868;2023-03-23T04:32:35;101670.13;;;10.15;100.00
63808;BME280;49961;43.970;22.868;2023-03-23T04:33:40;101672.91;;;10.19;100.00
63808;BME280;49961;43.970;22.868;2023-03-23T04:34:41;101669.72;;;10.17;100.00
63808;BME280;49961;43.970;22.868;2023-03-23T04:35:43;101603.91;;;9.66;100.00
63808;BME280;49961;43.970;22.868;2023-03-23T04:36:45;101666.19;;;10.13;100.00
63808;BME280;49961;43.970;22.868;2023-03-23T04:37:47;101663.03;;;10.11;100.00
63808;BME280;49961;43.970;22.868;2023-03-23T04:38:48;101671.72;;;10.13;100.00
63808;BME280;49961;43.970;22.868;2023-03-23T04:39:52;101674.50;;;10.13;100.00
63808;BME280;49961;43.970;22.868;2023-03-23T04:41:00;101672.56;;;10.10;100.00
63808;BME280;49961;43.970;22.868;2023-03-23T04:42:02;101601.59;;;9.58;100.00
63808;BME280;49961;43.970;22.868;2023-03-23T04:43:03;101677.72;;;10.04;100.00
63808;BME280;49961;43.970;22.868;2023-03-23T04:44:07;101700.25;;;9.99;100.00
63808;BME280;49961;43.970;22.868;2023-03-23T04:45:08;101680.50;;;9.94;100.00
63808;BME280;49961;43.970;22.868;2023-03-23T04:46:08;101682.88;;;9.92;100.00
63808;BME280;49961;43.970;22.868;2023-03-23T04:47:09;101687.22;;;9.93;100.00
63808;BME280;49961;43.970;22.868;2023-03-23T04:48:10;101682.09;;;9.95;100.00
63808;BME280;49961;43.970;22.868;2023-03-23T04:49:11;101636.31;;;9.66;100.00
63808;BME280;49961;43.970;22.868;2023-03-23T04:50:14;101662.00;;;9.73;100.00
63808;BME280;49961;43.970;22.868;2023-03-23T04:51:15;101680.19;;;9.74;100.00
63808;BME280;49961;43.970;22.868;2023-03-23T04:52:15;101680.94;;;9.82;100.00
63808;BME280;49961;43.970;22.868;2023-03-23T04:53:16;101684.50;;;9.82;100.00
63808;BME280;49961;43.970;22.868;2023-03-23T04:54:18;101683.31;;;9.83;100.00
63808;BME280;49961;43.970;22.868;2023-03-23T04:55:18;101696.34;;;9.83;100.00
63808;BME280;49961;43.970;22.868;2023-03-23T04:56:20;101689.28;;;9.78;100.00
63808;BME280;49961;43.970;22.868;2023-03-23T04:57:20;101689.28;;;9.78;100.00
63808;BME280;49961;43.970;22.868;2023-03-23T04:58:21;101692.81;;;9.86;100.00
63808;BME280;49961;43.970;22.868;2023-03-23T04:59:23;101693.97;;;9.88;100.00
63808;BME280;49961;43.970;22.868;2023-03-23T05:00:27;101695.13;;;9.94;100.00
63808;BME280;49961;43.970;22.868;2023-03-23T05:01:28;101696.72;;;9.99;100.00
63808;BME280;49961;43.970;22.868;2023-03-23T05:02:28;101584.69;;;9.28;100.00
63808;BME280;49961;43.970;22.868;2023-03-23T05:03:30;101693.13;;;10.02;100.00
63808;BME280;49961;43.970;22.868;2023-03-23T05:04:30;101691.97;;;10.06;100.00
63808;BME280;49961;43.970;22.868;2023-03-23T05:05:34;101689.97;;;10.07;100.00
63808;BME280;49961;43.970;22.868;2023-03-23T05:06:34;101685.22;;;10.07;100.00
63808;BME280;49961;43.970;22.868;2023-03-23T05:07:36;101703.41;;;10.08;100.00
63808;BME280;49961;43.970;22.868;2023-03-23T05:08:37;101695.13;;;10.01;100.00
63808;BME280;49961;43.970;22.868;2023-03-23T05:09:39;101681.66;;;10.00;100.00
63808;BME280;49961;43.970;22.868;2023-03-23T05:10:39;101705.75;;;10.13;100.00
63808;BME280;49961;43.970;22.868;2023-03-23T05:11:40;101698.28;;;10.07;100.00
63808;BME280;49961;43.970;22.868;2023-03-23T05:12:41;101707.78;;;10.06;100.00
63808;BME280;49961;43.970;22.868;2023-03-23T05:13:41;101705.41;;;10.11;100.00
63808;BME280;49961;43.970;22.868;2023-03-23T05:14:44;101711.31;;;10.10;100.00
63808;BME280;49961;43.970;22.868;2023-03-23T05:15:44;101702.63;;;10.08;100.00
63808;BME280;49961;43.970;22.868;2023-03-23T05:16:45;101706.91;;;10.19;100.00
63808;BME280;49961;43.970;22.868;2023-03-23T05:17:51;101576.72;;;9.44;100.00
63808;BME280;49961;43.970;22.868;2023-03-23T05:18:52;101708.06;;;10.32;100.00
63808;BME280;49961;43.970;22.868;2023-03-23T05:19:53;101715.94;;;10.37;100.00
63808;BME280;49961;43.970;22.868;2023-03-23T05:20:53;101717.84;;;10.44;100.00
63808;BME280;49961;43.970;22.868;2023-03-23T05:21:56;101571.16;;;9.58;100.00
63808;BME280;49961;43.970;22.868;2023-03-23T05:23:02;101715.84;;;10.51;100.00
63808;BME280;49961;43.970;22.868;2023-03-23T05:24:03;101715.84;;;10.55;100.00
63808;BME280;49961;43.970;22.868;2023-03-23T05:25:06;101715.41;;;10.56;100.00
63808;BME280;49961;43.970;22.868;2023-03-23T05:26:09;101721.66;;;10.67;100.00
63808;BME280;49961;43.970;22.868;2023-03-23T05:27:10;101634.56;;;10.14;100.00
63808;BME280;49961;43.970;22.868;2023-03-23T05:28:11;101710.66;;;10.57;100.00
63808;BME280;49961;43.970;22.868;2023-03-23T05:29:12;101723.63;;;10.70;100.00
63808;BME280;49961;43.970;22.868;2023-03-23T05:30:12;101650.81;;;10.01;100.00
63808;BME280;49961;43.970;22.868;2023-03-23T05:31:16;101718.84;;;10.74;100.00
63808;BME280;49961;43.970;22.868;2023-03-23T05:32:16;101655.75;;;10.38;100.00
63808;BME280;49961;43.970;22.868;2023-03-23T05:33:17;101719.19;;;10.83;100.00
63808;BME280;49961;43.970;22.868;2023-03-23T05:34:17;101723.09;;;10.89;100.00
63808;BME280;49961;43.970;22.868;2023-03-23T05:35:19;101693.84;;;10.81;100.00
63808;BME280;49961;43.970;22.868;2023-03-23T05:36:20;101717.50;;;10.96;100.00
63808;BME280;49961;43.970;22.868;2023-03-23T05:37:24;101719.81;;;11.01;100.00
63808;BME280;49961;43.970;22.868;2023-03-23T05:38:25;101717.78;;;11.09;100.00
63808;BME280;49961;43.970;22.868;2023-03-23T05:39:26;101615.75;;;10.42;100.00
63808;BME280;49961;43.970;22.868;2023-03-23T05:40:26;101717.38;;;11.10;100.00
63808;BME280;49961;43.970;22.868;2023-03-23T05:41:28;101720.91;;;11.11;100.00
63808;BME280;49961;43.970;22.868;2023-03-23T05:42:28;101723.31;;;11.09;100.00
63808;BME280;49961;43.970;22.868;2023-03-23T05:43:28;101705.22;;;10.94;100.00
63808;BME280;49961;43.970;22.868;2023-03-23T05:44:29;101720.97;;;11.07;100.00
63808;BME280;49961;43.970;22.868;2023-03-23T05:45:29;101676.44;;;10.77;100.00
63808;BME280;49961;43.970;22.868;2023-03-23T05:46:30;101728.84;;;11.12;100.00
63808;BME280;49961;43.970;22.868;2023-03-23T05:47:31;101656.31;;;10.66;100.00
63808;BME280;49961;43.970;22.868;2023-03-23T05:48:32;101692.59;;;10.89;100.00